Time;durP1;ratioP1;P1;durP2;ratioP2;P2;SDS_P1;SDS_P2;PMS_P1;PMS_P2;Temp;Humidity;BMP_temperature;BMP_pressure;BME280_temperature;BME280_humidity;BME280_pressure;Samples;Min_cycle;Max_cycle;Signal;HPM_P1;HPM_P2
2023/09/11 00:00:39;;;;;;;19.63;13.10;;;;;;;21.00;100.00;100687.88;5056266;28;20101;-51
2023/09/11 00:03:05;;;;;;;23.17;15.80;;;;;;;20.92;100.00;100691.84;5052066;28;20021;-55
2023/09/11 00:05:30;;;;;;;39.80;12.98;;;;;;;21.00;100.00;100699.47;5048037;28;20485;-54
2023/09/11 00:07:55;;;;;;;22.40;10.93;;;;;;;20.97;100.00;100697.28;5054284;28;20021;-53
2023/09/11 00:10:21;;;;;;;14.77;9.30;;;;;;;21.02;100.00;100691.13;5047576;28;20044;-52
2023/09/11 00:12:46;;;;;;;17.60;11.80;;;;;;;21.03;100.00;100685.47;5048968;28;20025;-49
2023/09/11 00:15:11;;;;;;;15.90;12.40;;;;;;;21.00;100.00;100690.56;5044038;28;20038;-56
2023/09/11 00:17:37;;;;;;;15.40;10.80;;;;;;;21.05;100.00;100690.63;5053976;28;20393;-56
2023/09/11 00:20:10;;;;;;;18.88;12.73;;;;;;;21.07;100.00;100683.09;5049688;28;20078;-53
2023/09/11 00:22:35;;;;;;;25.95;16.15;;;;;;;21.09;100.00;100676.38;5054456;28;20020;-56
2023/09/11 00:25:01;;;;;;;25.27;14.57;;;;;;;21.06;100.00;100679.56;5048939;28;20029;-54
2023/09/11 00:27:26;;;;;;;20.00;12.70;;;;;;;21.11;100.00;100684.19;5062315;28;20059;-51
2023/09/11 00:29:52;;;;;;;19.55;12.13;;;;;;;21.15;100.00;100681.81;5052054;28;20060;-54
2023/09/11 00:32:17;;;;;;;23.50;13.40;;;;;;;21.12;100.00;100689.34;5052395;28;20056;-52
2023/09/11 00:34:43;;;;;;;20.98;12.88;;;;;;;21.16;100.00;100673.44;5054328;28;20024;-52
2023/09/11 00:37:08;;;;;;;17.50;12.70;;;;;;;21.15;100.00;100682.63;5060542;28;20115;-54
2023/09/11 00:39:33;;;;;;;19.42;13.02;;;;;;;21.17;100.00;100674.25;5059828;28;20024;-53
2023/09/11 00:41:59;;;;;;;19.20;12.65;;;;;;;21.08;100.00;100672.03;5052068;28;20033;-51
2023/09/11 00:44:24;;;;;;;20.55;12.82;;;;;;;21.08;100.00;100671.22;5064687;28;20043;-51
2023/09/11 00:46:50;;;;;;;20.00;10.48;;;;;;;21.12;100.00;100665.06;5058577;28;20044;-50
2023/09/11 00:49:19;;;;;;;19.83;13.25;;;;;;;21.12;100.00;100665.06;5053316;28;20025;-54
2023/09/11 00:51:44;;;;;;;14.82;10.85;;;;;;;21.13;100.00;100664.00;5051521;28;20028;-53
2023/09/11 00:54:10;;;;;;;15.02;11.00;;;;;;;21.17;100.00;100658.91;5054986;28;20043;-51
2023/09/11 00:56:36;;;;;;;16.10;11.25;;;;;;;21.20;100.00;100653.00;5056656;28;20039;-54
2023/09/11 00:59:02;;;;;;;25.05;13.70;;;;;;;21.16;100.00;100661.88;5063460;28;20058;-54
2023/09/11 01:01:28;;;;;;;18.60;12.25;;;;;;;21.24;100.00;100658.69;5057058;28;20021;-52
2023/09/11 01:03:53;;;;;;;18.90;11.93;;;;;;;21.23;100.00;100651.69;5046773;28;20038;-52
2023/09/11 01:06:21;;;;;;;20.20;10.13;;;;;;;21.19;100.00;100655.94;5042924;28;20036;-53
2023/09/11 01:08:46;;;;;;;16.33;11.00;;;;;;;21.22;100.00;100650.03;5058236;28;20486;-54
2023/09/11 01:11:11;;;;;;;14.95;10.52;;;;;;;21.26;100.00;100654.66;5049056;28;20037;-53
2023/09/11 01:13:37;;;;;;;18.55;10.30;;;;;;;21.31;100.00;100653.91;5055797;28;20043;-53
2023/09/11 01:16:14;;;;;;;16.75;10.73;;;;;;;21.22;100.00;100650.03;5050867;28;20554;-52
2023/09/11 01:18:53;;;;;;;18.55;12.60;;;;;;;21.18;100.00;100654.34;5052426;28;20056;-52
2023/09/11 01:21:56;;;;;;;21.27;12.50;;;;;;;21.12;100.00;100657.00;5049616;28;20396;-54
2023/09/11 01:24:40;;;;;;;20.17;11.93;;;;;;;21.03;100.00;100658.50;5048442;28;20032;-52
2023/09/11 01:27:44;;;;;;;23.80;13.55;;;;;;;21.04;100.00;100657.47;5052639;28;20068;-52
2023/09/11 01:30:12;;;;;;;23.35;13.82;;;;;;;20.84;100.00;100657.28;5057443;28;20304;-53
2023/09/11 01:32:38;;;;;;;23.67;13.93;;;;;;;20.80;100.00;100654.25;5059053;28;20456;-52
2023/09/11 01:35:04;;;;;;;20.35;12.85;;;;;;;20.84;100.00;100658.09;5050558;28;20078;-50
2023/09/11 01:37:31;;;;;;;23.02;14.05;;;;;;;20.83;100.00;100658.31;5056666;28;20048;-50
2023/09/11 01:39:57;;;;;;;19.85;12.40;;;;;;;20.93;100.00;100655.72;5053777;28;20057;-53
2023/09/11 01:42:28;;;;;;;20.83;13.32;;;;;;;20.93;100.00;100658.41;5053811;28;20107;-53
2023/09/11 01:44:54;;;;;;;18.13;10.93;;;;;;;20.93;100.00;100650.34;5054946;28;20758;-53
2023/09/11 01:47:22;;;;;;;33.47;15.85;;;;;;;20.97;100.00;100645.25;5055670;28;20041;-54
2023/09/11 01:49:50;;;;;;;24.08;12.25;;;;;;;20.97;100.00;100646.06;5056215;28;20032;-55
2023/09/11 01:52:16;;;;;;;22.38;13.43;;;;;;;20.99;100.00;100649.34;5054462;28;20033;-50
2023/09/11 01:54:42;;;;;;;19.70;12.45;;;;;;;21.00;100.00;100642.84;5053223;28;20111;-51
2023/09/11 01:57:07;;;;;;;23.90;14.00;;;;;;;20.97;100.00;100648.75;5055930;28;20044;-51
2023/09/11 01:59:33;;;;;;;18.70;12.20;;;;;;;20.97;100.00;100654.16;5050847;28;20417;-54
2023/09/11 02:01:58;;;;;;;16.80;11.55;;;;;;;20.96;100.00;100644.47;5050481;28;20066;-53
2023/09/11 02:04:24;;;;;;;23.92;12.38;;;;;;;21.01;100.00;100641.78;5056674;28;20532;-56
2023/09/11 02:06:49;;;;;;;19.90;11.82;;;;;;;21.02;100.00;100637.22;5057394;28;20064;-51
2023/09/11 02:09:14;;;;;;;17.25;12.20;;;;;;;21.02;100.00;100624.56;5054636;28;20103;-52
2023/09/11 02:11:40;;;;;;;25.45;13.13;;;;;;;20.99;100.00;100624.22;5054426;28;20034;-53
2023/09/11 02:14:05;;;;;;;21.42;10.85;;;;;;;20.97;100.00;100629.09;5054707;28;20490;-54
2023/09/11 02:16:30;;;;;;;19.70;11.23;;;;;;;20.93;100.00;100620.69;5065659;28;20037;-51
2023/09/11 02:18:56;;;;;;;16.17;9.88;;;;;;;20.80;100.00;100626.50;5055269;28;20067;-53
2023/09/11 02:21:21;;;;;;;23.23;12.57;;;;;;;20.64;100.00;100620.97;5062442;28;20142;-52
2023/09/11 02:23:46;;;;;;;21.30;12.52;;;;;;;20.55;100.00;100622.50;5051680;28;20030;-56
2023/09/11 02:26:12;;;;;;;21.52;13.15;;;;;;;20.55;100.00;100630.59;5057027;28;20444;-53
2023/09/11 02:28:37;;;;;;;25.67;14.05;;;;;;;20.62;100.00;100638.44;5045870;28;20029;-50
2023/09/11 02:31:03;;;;;;;19.90;12.52;;;;;;;20.71;100.00;100638.81;5056098;28;20157;-52
2023/09/11 02:33:28;;;;;;;20.48;11.95;;;;;;;20.81;100.00;100637.03;5059245;28;20024;-51
2023/09/11 02:35:57;;;;;;;18.02;11.27;;;;;;;20.86;100.00;100633.59;5049124;28;20060;-51
2023/09/11 02:38:23;;;;;;;18.23;10.98;;;;;;;20.99;100.00;100625.06;5061149;28;20021;-53
2023/09/11 02:40:49;;;;;;;19.90;12.35;;;;;;;21.00;100.00;100632.06;5051511;28;20509;-48
2023/09/11 02:43:14;;;;;;;16.85;10.80;;;;;;;21.00;100.00;100618.59;5053034;28;20440;-53
2023/09/11 02:45:44;;;;;;;19.98;11.73;;;;;;;20.96;100.00;100622.91;5059761;28;20039;-50
2023/09/11 02:48:10;;;;;;;20.13;11.80;;;;;;;20.96;100.00;100620.19;5056765;28;20300;-53
2023/09/11 02:50:35;;;;;;;15.82;10.95;;;;;;;20.88;100.00;100616.09;5055702;28;20486;-53
2023/09/11 02:53:00;;;;;;;16.67;9.40;;;;;;;20.82;100.00;100611.72;5048172;28;20040;-51
2023/09/11 02:55:26;;;;;;;15.13;10.60;;;;;;;20.76;100.00;100610.03;5053329;28;20029;-53
2023/09/11 02:57:51;;;;;;;15.95;10.48;;;;;;;20.78;100.00;100607.06;5054446;28;20053;-52
2023/09/11 03:00:16;;;;;;;14.85;9.52;;;;;;;20.78;100.00;100607.06;5050034;28;20041;-49
2023/09/11 03:02:42;;;;;;;17.40;11.00;;;;;;;20.79;100.00;100604.13;5054032;28;20056;-52
2023/09/11 03:05:08;;;;;;;18.63;11.63;;;;;;;20.78;100.00;100597.13;5051375;28;20040;-54
2023/09/11 03:07:33;;;;;;;18.15;10.70;;;;;;;20.77;100.00;100600.88;5056350;28;20036;-54
2023/09/11 03:09:58;;;;;;;17.40;11.73;;;;;;;20.76;100.00;100604.66;5060851;28;20028;-53
2023/09/11 03:12:23;;;;;;;16.25;10.32;;;;;;;20.76;100.00;100609.25;5052311;28;20592;-52
2023/09/11 03:14:52;;;;;;;14.52;10.30;;;;;;;20.79;100.00;100614.13;5051655;28;20024;-52
2023/09/11 03:17:18;;;;;;;21.33;12.10;;;;;;;20.77;100.00;100608.16;5055182;28;20043;-52
2023/09/11 03:19:44;;;;;;;19.30;11.15;;;;;;;20.73;100.00;100609.72;5061006;28;20019;-53
2023/09/11 03:22:09;;;;;;;17.77;11.95;;;;;;;20.62;100.00;100614.22;5048211;28;20243;-54
2023/09/11 03:24:35;;;;;;;17.48;9.60;;;;;;;20.63;100.00;100608.56;5053865;28;20056;-52
2023/09/11 03:27:00;;;;;;;19.60;11.40;;;;;;;20.61;100.00;100607.19;5059143;28;20062;-52
2023/09/11 03:29:25;;;;;;;22.20;11.32;;;;;;;20.55;100.00;100602.81;5056230;28;20492;-54
2023/09/11 03:31:51;;;;;;;18.67;10.57;;;;;;;20.42;100.00;100601.31;5048984;28;20047;-50
2023/09/11 03:34:16;;;;;;;14.48;9.38;;;;;;;20.35;100.00;100598.03;5057096;28;20044;-52
2023/09/11 03:36:41;;;;;;;16.98;10.98;;;;;;;20.38;100.00;100597.50;5051378;28;20466;-51
2023/09/11 03:39:07;;;;;;;17.17;10.65;;;;;;;20.40;100.00;100600.78;5055829;28;20071;-49
2023/09/11 03:41:33;;;;;;;28.17;12.75;;;;;;;20.46;100.00;100599.75;5047763;28;20033;-52
2023/09/11 03:43:58;;;;;;;23.60;12.52;;;;;;;20.43;100.00;100597.56;5060774;28;20078;-50
2023/09/11 03:46:24;;;;;;;21.85;12.60;;;;;;;20.40;100.00;100606.16;5056808;28;20046;-54
2023/09/11 03:48:49;;;;;;;26.50;14.68;;;;;;;20.43;100.00;100605.63;5055887;28;20082;-53
2023/09/11 03:51:14;;;;;;;20.92;12.40;;;;;;;20.49;100.00;100604.63;5048590;28;20033;-50
2023/09/11 03:53:45;;;;;;;22.30;12.95;;;;;;;20.48;100.00;100601.13;5056925;28;20028;-54
2023/09/11 03:56:12;;;;;;;22.30;12.40;;;;;;;20.52;100.00;100598.72;5059233;28;20040;-50
2023/09/11 03:58:38;;;;;;;24.88;13.20;;;;;;;20.54;100.00;100593.94;5051770;28;20132;-53
2023/09/11 04:01:04;;;;;;;24.67;12.65;;;;;;;20.51;100.00;100590.91;5047568;28;20390;-54
2023/09/11 04:03:30;;;;;;;26.40;14.57;;;;;;;20.46;100.00;100605.94;5054396;28;20044;-49
2023/09/11 04:05:55;;;;;;;23.58;14.43;;;;;;;20.52;100.00;100603.28;5049023;28;20036;-51
2023/09/11 04:08:20;;;;;;;20.10;12.15;;;;;;;20.54;100.00;100607.41;5049603;28;20551;-52
2023/09/11 04:10:46;;;;;;;23.65;13.18;;;;;;;20.51;100.00;100607.88;5048658;28;20036;-54
2023/09/11 04:13:11;;;;;;;23.10;13.35;;;;;;;20.49;100.00;100613.50;5052732;28;20060;-53
2023/09/11 04:15:36;;;;;;;19.75;11.10;;;;;;;20.54;100.00;100607.41;5051355;28;20473;-51
2023/09/11 04:18:02;;;;;;;22.02;10.98;;;;;;;20.55;100.00;100608.19;5055149;28;20031;-47
2023/09/11 04:20:33;;;;;;;23.45;12.65;;;;;;;20.54;100.00;100611.94;5055240;28;20036;-53
2023/09/11 04:22:59;;;;;;;25.17;15.25;;;;;;;20.57;100.00;100616.84;5051051;28;20045;-51
2023/09/11 04:25:25;;;;;;;26.23;13.65;;;;;;;20.61;100.00;100617.97;5048410;28;20032;-51
2023/09/11 04:27:50;;;;;;;23.73;13.38;;;;;;;20.63;100.00;100613.97;5047699;28;20043;-50
2023/09/11 04:30:17;;;;;;;20.63;12.25;;;;;;;20.64;100.00;100617.47;5052881;28;20193;-54
2023/09/11 04:32:43;;;;;;;23.10;13.00;;;;;;;20.61;100.00;100617.97;5050386;28;20506;-50
2023/09/11 04:35:08;;;;;;;22.25;13.00;;;;;;;20.61;100.00;100624.19;5064814;28;20035;-55
2023/09/11 04:37:34;;;;;;;20.95;12.52;;;;;;;20.62;100.00;100627.69;5048386;28;20631;-50
2023/09/11 04:39:59;;;;;;;20.27;12.60;;;;;;;20.67;100.00;100616.94;5053159;28;20040;-50
2023/09/11 04:42:24;;;;;;;19.73;11.90;;;;;;;20.71;100.00;100623.47;5055101;28;20032;-51
2023/09/11 04:44:51;;;;;;;21.50;12.82;;;;;;;20.69;100.00;100625.59;5045535;28;20496;-48
2023/09/11 04:47:17;;;;;;;21.92;12.40;;;;;;;20.71;100.00;100626.16;5051944;28;20786;-52
2023/09/11 04:49:42;;;;;;;20.92;12.13;;;;;;;20.69;100.00;100622.91;5054262;28;20100;-49
2023/09/11 04:52:07;;;;;;;21.15;13.88;;;;;;;20.69;100.00;100623.72;5053908;28;20107;-49
2023/09/11 04:54:33;;;;;;;20.63;12.52;;;;;;;20.75;100.00;100623.75;5058694;28;20028;-53
2023/09/11 04:56:58;;;;;;;18.38;10.60;;;;;;;20.67;100.00;100622.34;5052718;28;20107;-53
2023/09/11 04:59:23;;;;;;;22.73;12.15;;;;;;;20.60;100.00;100627.94;5054460;28;20032;-51
2023/09/11 05:01:49;;;;;;;18.25;12.32;;;;;;;20.59;100.00;100631.69;5058056;28;20170;-49
2023/09/11 05:04:14;;;;;;;20.45;13.45;;;;;;;20.56;100.00;100626.81;5048759;28;20028;-53
2023/09/11 05:06:40;;;;;;;15.60;10.32;;;;;;;20.51;100.00;100623.22;5049927;28;20582;-51
2023/09/11 05:09:05;;;;;;;16.75;11.23;;;;;;;20.52;100.00;100625.66;5052482;28;20028;-51
2023/09/11 05:11:30;;;;;;;20.13;7.97;;;;;;;20.49;100.00;100618.88;5049039;28;20037;-50
2023/09/11 05:13:56;;;;;;;14.10;8.00;;;;;;;20.61;100.00;100621.47;5051469;28;20348;-49
2023/09/11 05:16:21;;;;;;;11.55;7.22;;;;;;;20.55;100.00;100614.44;5047834;28;20036;-54
2023/09/11 05:18:47;;;;;;;8.38;6.40;;;;;;;20.44;100.00;100628.81;5046130;28;20097;-53
2023/09/11 05:21:13;;;;;;;7.93;5.70;;;;;;;20.49;100.00;100626.16;5051497;28;20063;-51
2023/09/11 05:23:38;;;;;;;8.63;5.35;;;;;;;20.52;100.00;100622.97;5050220;28;20028;-55
2023/09/11 05:26:07;;;;;;;8.07;6.20;;;;;;;20.60;100.00;100622.56;5052139;28;20032;-53
2023/09/11 05:28:32;;;;;;;6.10;4.57;;;;;;;20.66;100.00;100618.03;5047474;28;20081;-51
2023/09/11 05:30:57;;;;;;;11.05;4.80;;;;;;;20.61;100.00;100620.66;5048673;28;20041;-51
2023/09/11 05:33:23;;;;;;;6.18;3.92;;;;;;;20.50;100.00;100614.34;5049788;28;20040;-52
2023/09/11 05:35:48;;;;;;;9.50;4.78;;;;;;;20.52;100.00;100620.25;5051681;28;20040;-52
2023/09/11 05:38:14;;;;;;;5.57;3.50;;;;;;;20.49;100.00;100624.28;5052533;28;20028;-51
2023/09/11 05:40:39;;;;;;;5.00;3.15;;;;;;;20.51;100.00;100629.44;5050103;28;20082;-48
2023/09/11 05:43:05;;;;;;;8.25;4.15;;;;;;;20.49;100.00;100620.78;5052906;28;20029;-53
2023/09/11 05:45:30;;;;;;;3.92;2.95;;;;;;;20.51;100.00;100623.22;5051562;28;20037;-51
2023/09/11 05:47:55;;;;;;;3.85;2.53;;;;;;;20.53;100.00;100621.09;5054650;28;20021;-51
2023/09/11 05:50:21;;;;;;;5.57;3.40;;;;;;;20.47;100.00;100610.28;5052009;28;20025;-50
2023/09/11 05:52:46;;;;;;;2.63;2.25;;;;;;;20.51;100.00;100618.66;5050156;28;20058;-51
2023/09/11 05:55:11;;;;;;;3.10;2.55;;;;;;;20.54;100.00;100623.56;5056065;28;20109;-54
2023/09/11 05:57:37;;;;;;;6.40;3.45;;;;;;;20.55;100.00;100625.19;5050649;28;20028;-52
2023/09/11 06:00:09;;;;;;;2.85;2.45;;;;;;;20.52;100.00;100631.03;5051098;28;20047;-52
2023/09/11 06:02:35;;;;;;;6.32;2.53;;;;;;;20.50;100.00;100627.81;5050086;28;20041;-53
2023/09/11 06:05:00;;;;;;;3.25;2.05;;;;;;;20.46;100.00;100632.06;5047501;28;20036;-53
2023/09/11 06:07:25;;;;;;;4.03;2.30;;;;;;;20.40;100.00;100638.47;5047263;28;20585;-55
2023/09/11 06:09:50;;;;;;;3.60;1.92;;;;;;;20.39;100.00;100644.91;5055373;28;20131;-54
2023/09/11 06:12:16;;;;;;;8.10;2.65;;;;;;;20.49;100.00;100643.13;5047414;28;20078;-50
2023/09/11 06:14:41;;;;;;;2.53;1.65;;;;;;;20.53;100.00;100627.28;5050351;28;20528;-54
2023/09/11 06:17:07;;;;;;;6.47;2.25;;;;;;;20.56;100.00;100631.41;5054937;28;20029;-52
2023/09/11 06:19:32;;;;;;;2.70;2.50;;;;;;;20.59;100.00;100626.31;5047628;28;20024;-51
2023/09/11 06:21:57;;;;;;;2.58;2.17;;;;;;;20.57;100.00;100631.13;5052769;28;20461;-53
2023/09/11 06:24:22;;;;;;;2.65;2.47;;;;;;;20.58;100.00;100635.47;5052459;28;20028;-55
2023/09/11 06:27:01;;;;;;;2.63;1.55;;;;;;;20.55;100.00;100627.06;5053795;28;20028;-55
2023/09/11 06:29:26;;;;;;;2.58;2.17;;;;;;;20.57;100.00;100630.31;5052114;28;20040;-53
2023/09/11 06:31:52;;;;;;;2.70;2.25;;;;;;;20.63;100.00;100637.41;5056834;28;20285;-53
2023/09/11 06:34:17;;;;;;;3.03;1.30;;;;;;;20.72;100.00;100640.44;5051308;28;20051;-54
2023/09/11 06:36:43;;;;;;;5.25;1.80;;;;;;;20.73;100.00;100634.81;5055237;28;20059;-52
2023/09/11 06:39:08;;;;;;;3.28;1.48;;;;;;;20.64;100.00;100633.63;5046454;28;20739;-49
2023/09/11 06:41:33;;;;;;;4.00;2.38;;;;;;;20.60;100.00;100636.03;5052738;28;20090;-51
2023/09/11 06:43:59;;;;;;;2.13;1.92;;;;;;;20.57;100.00;100641.91;5061372;28;20020;-51
2023/09/11 06:46:24;;;;;;;4.10;2.22;;;;;;;20.61;100.00;100640.34;5044786;28;20576;-55
2023/09/11 06:48:50;;;;;;;3.28;1.42;;;;;;;20.72;100.00;100633.16;5046291;28;20063;-50
2023/09/11 06:51:15;;;;;;;2.03;1.70;;;;;;;20.77;100.00;100638.59;5056425;28;20124;-51
2023/09/11 06:53:40;;;;;;;4.30;1.95;;;;;;;20.66;100.00;100640.38;5048861;28;20040;-53
2023/09/11 06:56:08;;;;;;;4.20;1.63;;;;;;;20.60;100.00;100633.34;5048888;28;20063;-51
2023/09/11 06:58:33;;;;;;;1.35;1.00;;;;;;;20.61;100.00;100634.13;5052274;28;20028;-52
2023/09/11 07:00:58;;;;;;;4.68;1.75;;;;;;;20.53;100.00;100627.28;5054931;28;20036;-49
2023/09/11 07:03:23;;;;;;;3.75;1.33;;;;;;;20.43;100.00;100633.38;5053847;28;20029;-52
2023/09/11 07:05:51;;;;;;;1.95;1.13;;;;;;;20.48;100.00;100633.44;5058188;28;20032;-51
2023/09/11 07:08:16;;;;;;;2.90;1.60;;;;;;;20.53;100.00;100630.00;5048255;28;20292;-52
2023/09/11 07:10:47;;;;;;;2.25;1.17;;;;;;;20.51;100.00;100632.13;5048031;28;20035;-51
2023/09/11 07:13:13;;;;;;;1.17;0.73;;;;;;;20.57;100.00;100635.69;5042635;28;20108;-53
2023/09/11 07:15:38;;;;;;;3.75;1.30;;;;;;;20.56;100.00;100637.59;5031532;28;20029;-50
2023/09/11 07:18:04;;;;;;;4.68;1.33;;;;;;;20.62;100.00;100636.56;5046304;28;20047;-50
2023/09/11 07:20:29;;;;;;;1.73;1.00;;;;;;;20.69;100.00;100641.75;5042104;28;20476;-56
2023/09/11 07:22:55;;;;;;;3.92;0.90;;;;;;;20.67;100.00;100641.19;5049391;28;20079;-51
2023/09/11 07:25:22;;;;;;;2.38;0.93;;;;;;;20.75;100.00;100640.72;5047656;28;20523;-53
2023/09/11 07:27:48;;;;;;;1.60;0.93;;;;;;;20.84;100.00;100638.41;5049537;28;20029;-53
2023/09/11 07:30:14;;;;;;;1.08;1.02;;;;;;;20.95;100.00;100633.91;5046330;28;20110;-50
2023/09/11 07:32:40;;;;;;;0.77;0.68;;;;;;;21.09;100.00;100627.84;5058116;28;20494;-55
2023/09/11 07:35:05;;;;;;;11.80;2.03;;;;;;;21.10;100.00;100625.97;5057290;28;20115;-49
2023/09/11 07:37:31;;;;;;;3.35;1.02;;;;;;;21.21;100.00;100634.94;5053711;28;20032;-56
2023/09/11 07:39:57;;;;;;;1.25;0.50;;;;;;;21.25;100.00;100633.38;5051355;28;20521;-52
2023/09/11 07:42:23;;;;;;;3.58;0.80;;;;;;;21.29;100.00;100637.16;5052099;28;20795;-50
2023/09/11 07:44:48;;;;;;;2.05;0.68;;;;;;;21.32;100.00;100644.72;5063597;28;20028;-50
2023/09/11 07:47:14;;;;;;;2.63;1.55;;;;;;;21.34;100.00;100637.19;5050899;28;20044;-49
2023/09/11 07:49:39;;;;;;;1.67;0.60;;;;;;;21.39;100.00;100639.16;5053738;28;20555;-53
2023/09/11 07:52:05;;;;;;;2.55;1.02;;;;;;;21.49;100.00;100648.13;5050914;28;20029;-52
2023/09/11 07:54:31;;;;;;;1.85;0.50;;;;;;;21.51;100.00;100654.06;5053334;28;20036;-51
2023/09/11 07:56:56;;;;;;;2.30;0.60;;;;;;;21.46;100.00;100645.94;5058445;28;20112;-50
2023/09/11 07:59:22;;;;;;;0.55;0.40;;;;;;;21.42;100.00;100650.22;5052064;28;20111;-51
2023/09/11 08:01:47;;;;;;;1.42;0.30;;;;;;;21.42;100.00;100650.22;5050427;28;20024;-50
2023/09/11 08:04:12;;;;;;;1.50;0.57;;;;;;;21.29;100.00;100646.06;5057320;28;20111;-51
2023/09/11 08:06:38;;;;;;;0.40;0.40;;;;;;;21.35;100.00;100647.72;5051834;28;20068;-50
2023/09/11 08:09:03;;;;;;;2.65;0.50;;;;;;;21.43;100.00;100651.88;5054191;28;20028;-52
2023/09/11 08:11:29;;;;;;;2.15;0.47;;;;;;;21.64;100.00;100652.00;5046605;28;20030;-54
2023/09/11 08:13:55;;;;;;;0.52;0.52;;;;;;;21.80;100.00;100656.41;5052761;28;20044;-54
2023/09/11 08:16:20;;;;;;;0.52;0.30;;;;;;;21.93;100.00;100642.44;5056579;28;20432;-52
2023/09/11 08:18:46;;;;;;;1.25;0.63;;;;;;;22.05;100.00;100646.84;5054975;28;20027;-55
2023/09/11 08:21:12;;;;;;;1.27;0.50;;;;;;;21.98;100.00;100645.16;5060269;28;20039;-48
2023/09/11 08:23:37;;;;;;;0.50;0.30;;;;;;;22.02;100.00;100636.53;5053582;28;20086;-52
2023/09/11 08:26:02;;;;;;;0.82;0.60;;;;;;;22.10;100.00;100636.06;5058382;28;20440;-51
2023/09/11 08:28:28;;;;;;;5.63;1.90;;;;;;;22.14;100.00;100635.25;5051438;28;20046;-53
2023/09/11 08:30:54;;;;;;;1.00;0.77;;;;;;;22.36;100.00;100639.69;5057611;28;20128;-51
2023/09/11 08:33:21;;;;;;;2.38;0.45;;;;;;;22.53;100.00;100637.53;5056551;28;20512;-53
2023/09/11 08:35:48;;;;;;;1.48;0.63;;;;;;;22.79;100.00;100626.78;5054470;28;20094;-49
2023/09/11 08:38:17;;;;;;;4.93;0.88;;;;;;;23.02;100.00;100630.88;5057257;28;20817;-53
2023/09/11 08:40:43;;;;;;;5.68;1.38;;;;;;;23.24;100.00;100627.91;5058429;28;20024;-50
2023/09/11 08:43:09;;;;;;;0.50;0.50;;;;;;;23.49;100.00;100635.16;5057232;28;20059;-53
2023/09/11 08:45:34;;;;;;;0.63;0.55;;;;;;;23.39;100.00;100629.78;5053283;28;20032;-51
2023/09/11 08:48:04;;;;;;;5.25;1.40;;;;;;;23.62;100.00;100625.66;5050432;28;20081;-54
2023/09/11 08:50:35;;;;;;;0.73;0.73;;;;;;;23.64;100.00;100618.91;5050051;28;20039;-50
2023/09/11 08:53:01;;;;;;;1.30;0.93;;;;;;;23.64;100.00;100637.84;5051408;28;20546;-51
2023/09/11 08:55:31;;;;;;;1.95;0.50;;;;;;;23.42;100.00;100627.34;5054103;28;20032;-54
2023/09/11 08:58:02;;;;;;;0.90;0.70;;;;;;;23.26;100.00;100628.47;5066962;28;20028;-48
2023/09/11 09:00:28;;;;;;;0.80;0.55;;;;;;;23.25;100.00;100629.53;5071798;28;20114;-51
2023/09/11 09:02:54;;;;;;;0.88;0.40;;;;;;;23.37;100.00;100631.97;5057523;28;20162;-52
2023/09/11 09:05:20;;;;;;;6.72;1.55;;;;;;;23.43;100.00;100636.28;5055827;28;20029;-51
2023/09/11 09:07:47;;;;;;;2.20;0.68;;;;;;;23.51;100.00;100635.72;5054544;28;20477;-49
2023/09/11 09:10:13;;;;;;;2.50;0.50;;;;;;;23.55;100.00;100625.16;5056353;28;20036;-51
2023/09/11 09:12:39;;;;;;;1.33;0.93;;;;;;;23.52;100.00;100629.22;5052066;28;20123;-51
2023/09/11 09:15:06;;;;;;;6.10;1.80;;;;;;;23.67;100.00;100617.53;5066364;28;20188;-53
2023/09/11 09:17:31;;;;;;;4.32;0.80;;;;;;;23.84;100.00;100623.47;5057453;28;20035;-52
2023/09/11 09:19:56;;;;;;;2.53;0.85;;;;;;;23.95;100.00;100618.84;5054902;28;20021;-52
2023/09/11 09:22:22;;;;;;;2.25;1.52;;;;;;;24.13;100.00;100614.69;5055269;28;20039;-49
2023/09/11 09:24:52;;;;;;;2.13;0.93;;;;;;;24.10;100.00;100616.06;5055622;28;20040;-51
2023/09/11 09:27:18;;;;;;;0.73;0.45;;;;;;;24.11;100.00;100616.88;5049383;28;20047;-48
2023/09/11 09:29:44;;;;;;;4.30;1.00;;;;;;;24.25;100.00;100614.38;5055214;28;20572;-51
2023/09/11 09:32:10;;;;;;;3.33;0.82;;;;;;;24.16;100.00;100614.97;5051499;28;20144;-53
2023/09/11 09:34:37;;;;;;;1.48;0.40;;;;;;;24.41;100.00;100612.38;5055102;28;20032;-54
2023/09/11 09:37:03;;;;;;;1.30;0.70;;;;;;;24.65;100.00;100609.81;5057904;28;20052;-51
2023/09/11 09:39:29;;;;;;;0.60;0.50;;;;;;;24.91;100.00;100605.84;5049191;28;20029;-53
2023/09/11 09:41:56;;;;;;;2.33;0.47;;;;;;;24.99;100.00;100596.28;5054025;28;20101;-51
2023/09/11 09:44:30;;;;;;;1.00;0.57;;;;;;;25.00;100.00;100597.91;5056206;28;20024;-52
2023/09/11 09:46:56;;;;;;;3.45;0.50;;;;;;;25.11;100.00;100596.69;5050404;28;20159;-54
2023/09/11 09:49:22;;;;;;;0.28;0.10;;;;;;;25.10;100.00;100594.28;5050799;28;20039;-51
2023/09/11 09:51:48;;;;;;;0.28;0.28;;;;;;;25.24;100.00;100595.25;5055086;28;20037;-54
2023/09/11 09:54:13;;;;;;;0.40;0.35;;;;;;;25.24;100.00;100590.63;5053668;28;20031;-53
2023/09/11 09:56:39;;;;;;;1.15;0.50;;;;;;;24.98;100.00;100591.94;5059237;28;20037;-53
2023/09/11 09:59:05;;;;;;;1.63;0.40;;;;;;;24.44;100.00;100599.06;5054373;28;20371;-55
2023/09/11 10:01:30;;;;;;;2.35;0.70;;;;;;;24.79;100.00;100584.50;5060380;28;20052;-51
2023/09/11 10:03:56;;;;;;;0.38;0.10;;;;;;;24.98;100.00;100581.88;5054830;28;20520;-52
2023/09/11 10:06:27;;;;;;;1.02;0.90;;;;;;;25.21;100.00;100585.78;5053772;28;20615;-52
2023/09/11 10:09:12;;;;;;;;;;;;;;;25.84;100.00;100590.31;5051750;28;20028;-51
2023/09/11 10:11:39;;;;;;;0.93;0.40;;;;;;;25.67;100.00;100590.72;5049324;28;19924;-56
2023/09/11 10:14:06;;;;;;;0.32;0.32;;;;;;;25.53;100.00;100580.84;5058634;28;20031;-49
2023/09/11 10:16:32;;;;;;;3.88;0.88;;;;;;;25.64;100.00;100587.78;5058861;28;20055;-49
2023/09/11 10:18:59;;;;;;;0.73;0.40;;;;;;;25.49;100.00;100585.25;5054031;28;20692;-48
2023/09/11 10:21:25;;;;;;;2.45;0.38;;;;;;;25.38;100.00;100590.78;5059757;28;20078;-48
2023/09/11 10:23:52;;;;;;;3.38;0.70;;;;;;;25.74;100.00;100595.00;5061430;28;20031;-48
2023/09/11 10:26:27;;;;;;;0.52;0.43;;;;;;;25.67;100.00;100588.00;5052519;28;20434;-53
2023/09/11 10:28:58;;;;;;;1.10;0.20;;;;;;;25.53;100.00;100586.28;5057233;28;20048;-56
2023/09/11 10:31:29;;;;;;;1.80;0.77;;;;;;;25.68;100.00;100578.75;5057065;28;20028;-49
2023/09/11 10:33:57;;;;;;;4.50;0.68;;;;;;;25.84;100.00;100576.72;5055881;28;20063;-50
2023/09/11 10:36:33;;;;;;;0.85;0.30;;;;;;;25.87;100.00;100573.41;5058380;28;20434;-54
2023/09/11 10:39:01;;;;;;;2.67;0.40;;;;;;;26.03;100.00;100578.66;5056477;28;20044;-53
2023/09/11 10:41:26;;;;;;;0.68;0.60;;;;;;;26.04;100.00;100570.19;5053822;28;20021;-54
2023/09/11 10:43:52;;;;;;;1.60;0.52;;;;;;;26.08;100.00;100570.44;5057270;28;20021;-51
2023/09/11 10:46:21;;;;;;;3.08;0.30;;;;;;;25.97;100.00;100571.66;5059734;28;20097;-50
2023/09/11 10:48:46;;;;;;;0.80;0.35;;;;;;;26.04;100.00;100575.63;5054919;28;20034;-49
2023/09/11 10:51:13;;;;;;;2.85;0.75;;;;;;;25.76;100.00;100566.44;5054037;28;20406;-51
2023/09/11 10:53:40;;;;;;;4.13;0.45;;;;;;;26.23;100.00;100556.63;5058001;28;20502;-47
2023/09/11 10:56:06;;;;;;;3.47;0.50;;;;;;;26.50;100.00;100564.09;5051764;28;20056;-50
2023/09/11 10:58:32;;;;;;;3.75;1.45;;;;;;;26.65;100.00;100557.66;5056922;28;20428;-52
2023/09/11 11:00:58;;;;;;;0.40;0.20;;;;;;;26.98;100.00;100560.38;5045556;28;20032;-49
2023/09/11 11:03:29;;;;;;;4.72;1.05;;;;;;;26.92;100.00;100556.09;5053681;28;20035;-53
2023/09/11 11:05:55;;;;;;;;;;;;;;;27.54;100.00;100559.31;5053431;28;20025;-48